Ackworth, Iowa
Current Conditions -  °F | °C
As of 4:54 PM on Monday 20 Oct 2014 (Local Time) from KDSM Reporting Station
Few Clouds Few Clouds  
Wind Chill: 71°   Ceiling: Unl
Heat Index: 71°   Visibility: 10mi
Dew Point: 38°   Wind: 9mph
Humidity: 30%   Direction: 330°NNW
Pressure: 30"   Gusts: 18mph
Location:  41.37°N, 93.47°W
Report Text: KDSM 202154Z 33008G16KT 10SM FEW300 22/03 A3000 RMK AO2 SLP158 T02170033
Loading
Personal Weather Stations






























Interactive Weather Map
Tropical Storm Tracking
New forecast layout! Learn more

10-Day Weather Forecast

Advertisements
Track Severe Weather on mobile